sensor_id;sensor_type;location;lat;lon;timestamp;pressure;altitude;pressure_sealevel;temperature;humidity
21401;BME280;18038;50.166;18.908;2022-07-24T00:03:13;98204.88;;;18.35;77.09
21401;BME280;18038;50.166;18.908;2022-07-24T00:06:22;98210.06;;;18.37;77.15
21401;BME280;18038;50.166;18.908;2022-07-24T00:09:30;98213.38;;;18.27;77.03
21401;BME280;18038;50.166;18.908;2022-07-24T00:12:37;98201.66;;;18.21;77.28
21401;BME280;18038;50.166;18.908;2022-07-24T00:15:43;98201.06;;;18.19;77.75
21401;BME280;18038;50.166;18.908;2022-07-24T00:18:49;98212.94;;;18.18;77.60
21401;BME280;18038;50.166;18.908;2022-07-24T00:21:57;98215.44;;;18.08;77.67
21401;BME280;18038;50.166;18.908;2022-07-24T00:25:34;98217.66;;;18.11;77.78
21401;BME280;18038;50.166;18.908;2022-07-24T00:28:40;98216.25;;;18.08;78.07
21401;BME280;18038;50.166;18.908;2022-07-24T00:31:45;98219.13;;;17.90;78.07
21401;BME280;18038;50.166;18.908;2022-07-24T00:34:51;98224.41;;;17.85;78.37
21401;BME280;18038;50.166;18.908;2022-07-24T00:37:57;98228.66;;;17.81;78.42
21401;BME280;18038;50.166;18.908;2022-07-24T00:41:12;98218.69;;;17.81;78.52
21401;BME280;18038;50.166;18.908;2022-07-24T00:44:19;98224.13;;;17.70;78.78
21401;BME280;18038;50.166;18.908;2022-07-24T00:47:25;98212.34;;;17.76;78.65
21401;BME280;18038;50.166;18.908;2022-07-24T00:50:38;98216.69;;;17.77;79.00
21401;BME280;18038;50.166;18.908;2022-07-24T00:53:57;98216.22;;;17.68;78.73
21401;BME280;18038;50.166;18.908;2022-07-24T00:57:15;98227.03;;;17.68;79.36
21401;BME280;18038;50.166;18.908;2022-07-24T01:00:26;98227.38;;;17.72;78.85
21401;BME280;18038;50.166;18.908;2022-07-24T01:03:32;98218.69;;;17.81;78.92
21401;BME280;18038;50.166;18.908;2022-07-24T01:06:40;98225.25;;;17.85;77.53
21401;BME280;18038;50.166;18.908;2022-07-24T01:09:46;98230.91;;;17.84;77.52
21401;BME280;18038;50.166;18.908;2022-07-24T01:12:55;98230.78;;;17.79;77.38
21401;BME280;18038;50.166;18.908;2022-07-24T01:16:06;98222.44;;;17.80;77.90
21401;BME280;18038;50.166;18.908;2022-07-24T01:19:12;98225.25;;;17.74;77.61
21401;BME280;18038;50.166;18.908;2022-07-24T01:22:27;98223.38;;;17.74;78.05
21401;BME280;18038;50.166;18.908;2022-07-24T01:25:33;98230.31;;;17.70;78.04
21401;BME280;18038;50.166;18.908;2022-07-24T01:28:38;98230.69;;;17.62;78.26
21401;BME280;18038;50.166;18.908;2022-07-24T01:31:52;98230.69;;;17.62;78.40
21401;BME280;18038;50.166;18.908;2022-07-24T01:34:58;98226.31;;;17.61;78.25
21401;BME280;18038;50.166;18.908;2022-07-24T01:38:13;98225.88;;;17.64;78.65
21401;BME280;18038;50.166;18.908;2022-07-24T01:41:20;98229.38;;;17.76;77.99
21401;BME280;18038;50.166;18.908;2022-07-24T01:44:26;98228.06;;;17.79;78.05
21401;BME280;18038;50.166;18.908;2022-07-24T01:47:32;98233.03;;;17.70;78.05
21401;BME280;18038;50.166;18.908;2022-07-24T01:50:37;98227.38;;;17.72;78.11
21401;BME280;18038;50.166;18.908;2022-07-24T01:53:45;98225.63;;;17.66;78.32
21401;BME280;18038;50.166;18.908;2022-07-24T01:56:51;98230.81;;;17.67;78.05
21401;BME280;18038;50.166;18.908;2022-07-24T02:00:12;98230.81;;;17.67;77.58
21401;BME280;18038;50.166;18.908;2022-07-24T02:03:22;98232.09;;;17.64;77.38
21401;BME280;18038;50.166;18.908;2022-07-24T02:06:27;98234.75;;;17.53;77.38
21401;BME280;18038;50.166;18.908;2022-07-24T02:09:36;98234.78;;;17.41;76.79
21401;BME280;18038;50.166;18.908;2022-07-24T02:12:41;98238.28;;;17.41;76.73
21401;BME280;18038;50.166;18.908;2022-07-24T02:15:47;98237.22;;;17.42;76.59
21401;BME280;18038;50.166;18.908;2022-07-24T02:18:53;98237.81;;;17.45;75.76
21401;BME280;18038;50.166;18.908;2022-07-24T02:21:59;98238.19;;;17.48;75.88
21401;BME280;18038;50.166;18.908;2022-07-24T02:25:08;98238.75;;;17.50;75.38
21401;BME280;18038;50.166;18.908;2022-07-24T02:28:16;98233.22;;;17.45;75.44
21401;BME280;18038;50.166;18.908;2022-07-24T02:31:22;98248.50;;;17.28;75.37
21401;BME280;18038;50.166;18.908;2022-07-24T02:34:28;98250.13;;;17.17;75.84
21401;BME280;18038;50.166;18.908;2022-07-24T02:37:35;98250.47;;;17.20;75.35
21401;BME280;18038;50.166;18.908;2022-07-24T02:40:46;98239.69;;;17.09;74.77
21401;BME280;18038;50.166;18.908;2022-07-24T02:43:52;98247.88;;;17.02;74.63
21401;BME280;18038;50.166;18.908;2022-07-24T02:46:57;98249.41;;;16.98;73.91
21401;BME280;18038;50.166;18.908;2022-07-24T02:50:04;98258.66;;;16.90;74.27
21401;BME280;18038;50.166;18.908;2022-07-24T02:53:10;98256.28;;;16.82;73.38
21401;BME280;18038;50.166;18.908;2022-07-24T02:56:18;98256.16;;;16.77;72.34
21401;BME280;18038;50.166;18.908;2022-07-24T02:59:24;98252.72;;;16.70;73.37
21401;BME280;18038;50.166;18.908;2022-07-24T03:02:29;98253.47;;;16.59;72.64
21401;BME280;18038;50.166;18.908;2022-07-24T03:05:39;98262.09;;;16.49;72.67
21401;BME280;18038;50.166;18.908;2022-07-24T03:08:45;98269.75;;;16.33;73.01
21401;BME280;18038;50.166;18.908;2022-07-24T03:11:54;98272.38;;;16.40;73.22
21401;BME280;18038;50.166;18.908;2022-07-24T03:15:00;98264.19;;;16.47;72.88
21401;BME280;18038;50.166;18.908;2022-07-24T03:18:12;98270.13;;;16.37;72.98
21401;BME280;18038;50.166;18.908;2022-07-24T03:21:23;98271.41;;;16.35;73.09
21401;BME280;18038;50.166;18.908;2022-07-24T03:24:49;98273.22;;;16.22;73.24
21401;BME280;18038;50.166;18.908;2022-07-24T03:27:57;98273.06;;;16.17;73.09
21401;BME280;18038;50.166;18.908;2022-07-24T03:31:03;98268.94;;;16.15;73.33
21401;BME280;18038;50.166;18.908;2022-07-24T03:34:08;98278.66;;;16.16;74.02
21401;BME280;18038;50.166;18.908;2022-07-24T03:37:18;98274.03;;;16.04;73.74
21401;BME280;18038;50.166;18.908;2022-07-24T03:40:24;98278.66;;;16.16;73.35
21401;BME280;18038;50.166;18.908;2022-07-24T03:43:32;98288.63;;;16.15;73.09
21401;BME280;18038;50.166;18.908;2022-07-24T03:46:37;98280.63;;;16.27;73.08
21401;BME280;18038;50.166;18.908;2022-07-24T03:49:43;98287.81;;;16.33;72.77
21401;BME280;18038;50.166;18.908;2022-07-24T03:52:49;98287.50;;;16.41;72.77
21401;BME280;18038;50.166;18.908;2022-07-24T03:55:55;98286.69;;;16.41;72.68
21401;BME280;18038;50.166;18.908;2022-07-24T03:59:05;98291.28;;;16.52;72.89
21401;BME280;18038;50.166;18.908;2022-07-24T04:02:10;98291.09;;;16.84;71.58
21401;BME280;18038;50.166;18.908;2022-07-24T04:05:16;98298.16;;;17.38;69.65
21401;BME280;18038;50.166;18.908;2022-07-24T04:08:22;98298.66;;;17.82;68.48
21401;BME280;18038;50.166;18.908;2022-07-24T04:11:30;98295.50;;;17.97;67.30
21401;BME280;18038;50.166;18.908;2022-07-24T04:14:38;98305.94;;;18.05;66.66
21401;BME280;18038;50.166;18.908;2022-07-24T04:17:44;98312.34;;;18.51;65.16
21401;BME280;18038;50.166;18.908;2022-07-24T04:20:51;98308.63;;;19.27;62.86
21401;BME280;18038;50.166;18.908;2022-07-24T04:23:57;98316.84;;;19.66;62.02
21401;BME280;18038;50.166;18.908;2022-07-24T04:27:06;98310.97;;;19.91;59.82
21401;BME280;18038;50.166;18.908;2022-07-24T04:30:16;98315.75;;;20.44;59.03
21401;BME280;18038;50.166;18.908;2022-07-24T04:33:22;98317.72;;;20.93;56.39
21401;BME280;18038;50.166;18.908;2022-07-24T04:36:28;98326.06;;;21.13;55.69
21401;BME280;18038;50.166;18.908;2022-07-24T04:39:34;98320.59;;;21.41;54.39
21401;BME280;18038;50.166;18.908;2022-07-24T04:42:40;98335.34;;;21.77;53.83
21401;BME280;18038;50.166;18.908;2022-07-24T04:45:54;98335.31;;;22.14;53.23
21401;BME280;18038;50.166;18.908;2022-07-24T04:49:07;98337.16;;;22.51;51.62
21401;BME280;18038;50.166;18.908;2022-07-24T04:52:13;98342.19;;;22.90;50.01
21401;BME280;18038;50.166;18.908;2022-07-24T04:55:19;98348.22;;;23.02;49.48
21401;BME280;18038;50.166;18.908;2022-07-24T04:58:25;98351.00;;;23.23;49.05
21401;BME280;18038;50.166;18.908;2022-07-24T05:01:39;98350.19;;;23.43;48.16
21401;BME280;18038;50.166;18.908;2022-07-24T05:04:49;98352.41;;;23.82;48.04
21401;BME280;18038;50.166;18.908;2022-07-24T05:07:55;98348.31;;;24.00;46.22
21401;BME280;18038;50.166;18.908;2022-07-24T05:11:04;98354.81;;;24.24;46.16
21401;BME280;18038;50.166;18.908;2022-07-24T05:14:09;98353.97;;;24.34;44.47
21401;BME280;18038;50.166;18.908;2022-07-24T05:17:24;98359.44;;;24.39;44.37
21401;BME280;18038;50.166;18.908;2022-07-24T05:20:30;98357.38;;;24.80;43.39
21401;BME280;18038;50.166;18.908;2022-07-24T05:23:35;98364.97;;;24.89;43.37
21401;BME280;18038;50.166;18.908;2022-07-24T05:26:41;98361.66;;;24.97;43.29
21401;BME280;18038;50.166;18.908;2022-07-24T05:29:49;98360.84;;;25.41;41.93
21401;BME280;18038;50.166;18.908;2022-07-24T05:32:57;98360.53;;;25.03;41.89
21401;BME280;18038;50.166;18.908;2022-07-24T05:36:14;98358.13;;;25.75;41.18
21401;BME280;18038;50.166;18.908;2022-07-24T05:39:20;98354.00;;;26.36;40.22
21401;BME280;18038;50.166;18.908;2022-07-24T05:42:25;98359.00;;;26.29;39.96
21401;BME280;18038;50.166;18.908;2022-07-24T05:45:31;98357.44;;;25.59;40.75
21401;BME280;18038;50.166;18.908;2022-07-24T05:48:39;98356.09;;;26.20;40.01
21401;BME280;18038;50.166;18.908;2022-07-24T05:51:45;98354.66;;;25.64;40.25
21401;BME280;18038;50.166;18.908;2022-07-24T05:54:50;98354.53;;;25.80;39.42
21401;BME280;18038;50.166;18.908;2022-07-24T05:57:56;98358.63;;;25.82;39.38
21401;BME280;18038;50.166;18.908;2022-07-24T06:01:02;98352.03;;;26.66;38.82
21401;BME280;18038;50.166;18.908;2022-07-24T06:04:10;98357.47;;;27.09;37.63
21401;BME280;18038;50.166;18.908;2022-07-24T06:07:15;98363.41;;;27.73;36.34
21401;BME280;18038;50.166;18.908;2022-07-24T06:10:28;98365.53;;;28.08;34.57
21401;BME280;18038;50.166;18.908;2022-07-24T06:13:38;98373.69;;;28.14;34.69
21401;BME280;18038;50.166;18.908;2022-07-24T06:16:50;98372.50;;;28.75;33.81
21401;BME280;18038;50.166;18.908;2022-07-24T06:19:58;98369.56;;;27.45;33.66
21401;BME280;18038;50.166;18.908;2022-07-24T06:23:11;98375.19;;;28.06;34.34
21401;BME280;18038;50.166;18.908;2022-07-24T06:26:23;98372.25;;;28.02;34.58
21401;BME280;18038;50.166;18.908;2022-07-24T06:29:39;98368.38;;;28.03;34.03
21401;BME280;18038;50.166;18.908;2022-07-24T06:32:45;98364.13;;;27.78;34.04
21401;BME280;18038;50.166;18.908;2022-07-24T06:35:53;98370.69;;;28.43;33.95
21401;BME280;18038;50.166;18.908;2022-07-24T06:38:59;98371.38;;;28.90;32.89
21401;BME280;18038;50.166;18.908;2022-07-24T06:42:08;98372.19;;;29.40;31.59
21401;BME280;18038;50.166;18.908;2022-07-24T06:45:20;98373.69;;;28.27;32.58
21401;BME280;18038;50.166;18.908;2022-07-24T06:48:26;98376.19;;;28.70;32.45
21401;BME280;18038;50.166;18.908;2022-07-24T06:51:34;98372.78;;;28.32;32.42
21401;BME280;18038;50.166;18.908;2022-07-24T06:54:40;98371.66;;;28.33;32.67
21401;BME280;18038;50.166;18.908;2022-07-24T06:57:46;98370.91;;;28.00;33.28
21401;BME280;18038;50.166;18.908;2022-07-24T07:00:52;98372.34;;;28.44;31.87
21401;BME280;18038;50.166;18.908;2022-07-24T07:04:10;98371.19;;;28.72;31.61
21401;BME280;18038;50.166;18.908;2022-07-24T07:07:25;98371.19;;;27.84;32.90
21401;BME280;18038;50.166;18.908;2022-07-24T07:10:36;98374.09;;;27.17;34.78
21401;BME280;18038;50.166;18.908;2022-07-24T07:13:48;98372.00;;;27.99;32.70
21401;BME280;18038;50.166;18.908;2022-07-24T07:16:53;98373.84;;;28.50;31.92
21401;BME280;18038;50.166;18.908;2022-07-24T07:19:59;98372.88;;;28.27;31.32
21401;BME280;18038;50.166;18.908;2022-07-24T07:23:17;98375.06;;;27.97;32.20
21401;BME280;18038;50.166;18.908;2022-07-24T07:26:32;98378.66;;;27.03;33.28
21401;BME280;18038;50.166;18.908;2022-07-24T07:29:38;98376.59;;;28.64;31.70
21401;BME280;18038;50.166;18.908;2022-07-24T07:32:43;98376.50;;;28.55;31.52
21401;BME280;18038;50.166;18.908;2022-07-24T07:35:51;98383.31;;;28.71;31.18
21401;BME280;18038;50.166;18.908;2022-07-24T07:38:59;98380.94;;;29.56;30.12
21401;BME280;18038;50.166;18.908;2022-07-24T07:42:12;98375.25;;;29.39;30.81
21401;BME280;18038;50.166;18.908;2022-07-24T07:45:18;98377.91;;;29.08;30.67
21401;BME280;18038;50.166;18.908;2022-07-24T07:48:23;98381.47;;;27.93;33.28
21401;BME280;18038;50.166;18.908;2022-07-24T07:51:31;98380.69;;;28.52;30.93
21401;BME280;18038;50.166;18.908;2022-07-24T07:54:40;98386.16;;;28.94;30.84
21401;BME280;18038;50.166;18.908;2022-07-24T07:57:50;98378.09;;;29.11;29.90
21401;BME280;18038;50.166;18.908;2022-07-24T08:01:10;98379.19;;;28.14;31.46
21401;BME280;18038;50.166;18.908;2022-07-24T08:04:16;98390.00;;;27.72;31.18
21401;BME280;18038;50.166;18.908;2022-07-24T08:07:21;98386.47;;;27.15;32.87
21401;BME280;18038;50.166;18.908;2022-07-24T08:10:30;98392.22;;;26.22;33.38
21401;BME280;18038;50.166;18.908;2022-07-24T08:13:39;98396.75;;;26.85;33.77
21401;BME280;18038;50.166;18.908;2022-07-24T08:16:45;98388.22;;;27.06;32.60
21401;BME280;18038;50.166;18.908;2022-07-24T08:19:51;98397.00;;;27.45;32.13
21401;BME280;18038;50.166;18.908;2022-07-24T08:22:56;98396.59;;;27.90;31.42
21401;BME280;18038;50.166;18.908;2022-07-24T08:26:08;98394.03;;;27.61;30.91
21401;BME280;18038;50.166;18.908;2022-07-24T08:29:16;98397.22;;;27.68;30.79
21401;BME280;18038;50.166;18.908;2022-07-24T08:32:25;98395.41;;;27.96;30.00
21401;BME280;18038;50.166;18.908;2022-07-24T08:35:31;98399.13;;;28.19;29.24
21401;BME280;18038;50.166;18.908;2022-07-24T08:38:39;98402.53;;;28.85;28.87
21401;BME280;18038;50.166;18.908;2022-07-24T08:41:48;98406.50;;;29.57;27.93
21401;BME280;18038;50.166;18.908;2022-07-24T08:44:53;98396.56;;;28.97;29.69
21401;BME280;18038;50.166;18.908;2022-07-24T08:48:02;98401.66;;;29.40;28.91
21401;BME280;18038;50.166;18.908;2022-07-24T08:51:16;98399.97;;;29.16;27.89
21401;BME280;18038;50.166;18.908;2022-07-24T08:54:23;98406.53;;;30.02;26.55
21401;BME280;18038;50.166;18.908;2022-07-24T08:57:38;98394.72;;;30.33;27.44
21401;BME280;18038;50.166;18.908;2022-07-24T09:00:55;98406.22;;;31.06;25.99
21401;BME280;18038;50.166;18.908;2022-07-24T09:04:35;98408.03;;;30.39;27.34
21401;BME280;18038;50.166;18.908;2022-07-24T09:07:44;98408.59;;;29.74;27.32
21401;BME280;18038;50.166;18.908;2022-07-24T09:10:56;98401.81;;;29.80;27.58
21401;BME280;18038;50.166;18.908;2022-07-24T09:14:13;98405.75;;;29.65;28.95
21401;BME280;18038;50.166;18.908;2022-07-24T09:17:32;98408.97;;;28.94;29.75
21401;BME280;18038;50.166;18.908;2022-07-24T09:20:38;98400.13;;;28.84;28.15
21401;BME280;18038;50.166;18.908;2022-07-24T09:23:44;98395.72;;;28.83;28.99
21401;BME280;18038;50.166;18.908;2022-07-24T09:26:53;98409.16;;;29.12;29.03
21401;BME280;18038;50.166;18.908;2022-07-24T09:30:04;98401.09;;;30.11;28.32
21401;BME280;18038;50.166;18.908;2022-07-24T09:33:18;98398.59;;;30.63;27.59
21401;BME280;18038;50.166;18.908;2022-07-24T09:36:27;98406.22;;;30.03;27.96
21401;BME280;18038;50.166;18.908;2022-07-24T09:39:35;98410.75;;;29.85;28.34
21401;BME280;18038;50.166;18.908;2022-07-24T09:42:45;98410.16;;;29.16;28.77
21401;BME280;18038;50.166;18.908;2022-07-24T09:46:02;98415.19;;;29.36;29.02
21401;BME280;18038;50.166;18.908;2022-07-24T09:49:19;98409.28;;;29.43;29.29
21401;BME280;18038;50.166;18.908;2022-07-24T09:52:33;98402.69;;;30.12;27.58
21401;BME280;18038;50.166;18.908;2022-07-24T09:55:40;98406.72;;;30.77;28.04
21401;BME280;18038;50.166;18.908;2022-07-24T09:58:51;98399.16;;;30.51;27.83
21401;BME280;18038;50.166;18.908;2022-07-24T10:02:08;98392.13;;;31.33;26.74
21401;BME280;18038;50.166;18.908;2022-07-24T10:05:18;98397.38;;;29.48;28.10
21401;BME280;18038;50.166;18.908;2022-07-24T10:08:26;98403.78;;;28.05;30.23
21401;BME280;18038;50.166;18.908;2022-07-24T10:11:38;98400.91;;;28.84;28.84
21401;BME280;18038;50.166;18.908;2022-07-24T10:14:53;98386.03;;;29.13;27.35
21401;BME280;18038;50.166;18.908;2022-07-24T10:18:16;98392.75;;;29.21;26.67
21401;BME280;18038;50.166;18.908;2022-07-24T10:21:30;98384.53;;;28.65;27.06
21401;BME280;18038;50.166;18.908;2022-07-24T10:24:56;98389.69;;;27.93;28.92
21401;BME280;18038;50.166;18.908;2022-07-24T10:28:08;98385.53;;;27.95;28.70
21401;BME280;18038;50.166;18.908;2022-07-24T10:31:20;98384.53;;;27.53;30.10
21401;BME280;18038;50.166;18.908;2022-07-24T10:34:36;98390.06;;;27.34;30.11
21401;BME280;18038;50.166;18.908;2022-07-24T10:38:01;98390.31;;;27.89;29.49
21401;BME280;18038;50.166;18.908;2022-07-24T10:41:24;98386.97;;;27.74;30.05
21401;BME280;18038;50.166;18.908;2022-07-24T10:44:31;98389.13;;;27.77;29.52
21401;BME280;18038;50.166;18.908;2022-07-24T10:47:41;98379.34;;;27.14;29.82
21401;BME280;18038;50.166;18.908;2022-07-24T10:51:06;98376.66;;;27.84;28.09
21401;BME280;18038;50.166;18.908;2022-07-24T10:54:17;98383.09;;;28.40;28.65
21401;BME280;18038;50.166;18.908;2022-07-24T10:57:45;98371.31;;;28.40;28.40
21401;BME280;18038;50.166;18.908;2022-07-24T11:00:51;98370.94;;;28.27;27.88
21401;BME280;18038;50.166;18.908;2022-07-24T11:03:59;98364.28;;;27.87;27.03
21401;BME280;18038;50.166;18.908;2022-07-24T11:07:12;98370.03;;;27.53;28.00
21401;BME280;18038;50.166;18.908;2022-07-24T11:10:17;98372.84;;;27.10;28.34
21401;BME280;18038;50.166;18.908;2022-07-24T11:13:49;98375.94;;;27.60;28.38
21401;BME280;18038;50.166;18.908;2022-07-24T11:16:58;98364.66;;;27.80;28.14
21401;BME280;18038;50.166;18.908;2022-07-24T11:20:12;98365.75;;;28.12;26.78
21401;BME280;18038;50.166;18.908;2022-07-24T11:23:22;98373.78;;;28.08;27.47
21401;BME280;18038;50.166;18.908;2022-07-24T11:26:37;98371.09;;;28.64;27.80
21401;BME280;18038;50.166;18.908;2022-07-24T11:29:44;98365.69;;;28.31;26.47
21401;BME280;18038;50.166;18.908;2022-07-24T11:32:57;98367.09;;;28.28;27.49
21401;BME280;18038;50.166;18.908;2022-07-24T11:36:23;98368.34;;;28.64;27.27
21401;BME280;18038;50.166;18.908;2022-07-24T11:39:33;98352.94;;;29.04;24.69
21401;BME280;18038;50.166;18.908;2022-07-24T11:42:40;98351.13;;;29.36;24.18
21401;BME280;18038;50.166;18.908;2022-07-24T11:45:51;98349.13;;;28.64;24.20
21401;BME280;18038;50.166;18.908;2022-07-24T11:49:01;98341.66;;;28.92;25.14
21401;BME280;18038;50.166;18.908;2022-07-24T11:52:13;98353.78;;;29.05;24.40
21401;BME280;18038;50.166;18.908;2022-07-24T11:55:28;98364.47;;;28.79;25.08
21401;BME280;18038;50.166;18.908;2022-07-24T11:58:37;98362.91;;;29.14;24.61
21401;BME280;18038;50.166;18.908;2022-07-24T12:01:43;98352.75;;;29.37;23.16
21401;BME280;18038;50.166;18.908;2022-07-24T12:04:50;98346.41;;;29.14;24.10
21401;BME280;18038;50.166;18.908;2022-07-24T12:07:58;98352.88;;;29.32;22.24
21401;BME280;18038;50.166;18.908;2022-07-24T12:11:22;98350.06;;;29.09;23.00
21401;BME280;18038;50.166;18.908;2022-07-24T12:14:29;98343.72;;;29.23;23.61
21401;BME280;18038;50.166;18.908;2022-07-24T12:17:52;98344.66;;;29.54;23.25
21401;BME280;18038;50.166;18.908;2022-07-24T12:21:06;98341.38;;;29.52;22.69
21401;BME280;18038;50.166;18.908;2022-07-24T12:24:30;98344.63;;;28.82;24.42
21401;BME280;18038;50.166;18.908;2022-07-24T12:27:42;98344.13;;;29.30;25.05
21401;BME280;18038;50.166;18.908;2022-07-24T12:30:51;98349.53;;;28.57;24.85
21401;BME280;18038;50.166;18.908;2022-07-24T12:33:58;98341.34;;;28.10;25.21
21401;BME280;18038;50.166;18.908;2022-07-24T12:37:15;98334.59;;;27.89;25.04
21401;BME280;18038;50.166;18.908;2022-07-24T12:40:27;98345.25;;;28.37;25.51
21401;BME280;18038;50.166;18.908;2022-07-24T12:43:49;98332.13;;;28.62;24.30
21401;BME280;18038;50.166;18.908;2022-07-24T12:46:57;98340.34;;;28.20;25.44
21401;BME280;18038;50.166;18.908;2022-07-24T12:50:12;98339.19;;;27.75;25.98
21401;BME280;18038;50.166;18.908;2022-07-24T12:53:40;98338.69;;;28.05;26.29
21401;BME280;18038;50.166;18.908;2022-07-24T12:56:50;98331.88;;;27.70;25.46
21401;BME280;18038;50.166;18.908;2022-07-24T13:00:03;98336.47;;;27.23;26.28
21401;BME280;18038;50.166;18.908;2022-07-24T13:03:16;98342.88;;;26.94;26.58
21401;BME280;18038;50.166;18.908;2022-07-24T13:06:35;98333.28;;;26.30;26.68
21401;BME280;18038;50.166;18.908;2022-07-24T13:09:51;98330.34;;;26.21;27.97
21401;BME280;18038;50.166;18.908;2022-07-24T13:13:12;98321.25;;;26.26;27.76
21401;BME280;18038;50.166;18.908;2022-07-24T13:16:26;98310.16;;;25.59;27.65
21401;BME280;18038;50.166;18.908;2022-07-24T13:19:48;98316.38;;;25.64;28.90
21401;BME280;18038;50.166;18.908;2022-07-24T13:22:55;98308.72;;;25.66;28.85
21401;BME280;18038;50.166;18.908;2022-07-24T13:26:04;98317.91;;;25.41;27.93
21401;BME280;18038;50.166;18.908;2022-07-24T13:29:11;98311.06;;;25.44;28.90
21401;BME280;18038;50.166;18.908;2022-07-24T13:32:25;98312.97;;;25.48;28.45
21401;BME280;18038;50.166;18.908;2022-07-24T13:35:41;98313.88;;;25.28;28.71
21401;BME280;18038;50.166;18.908;2022-07-24T13:38:51;98309.22;;;25.34;28.72
21401;BME280;18038;50.166;18.908;2022-07-24T13:41:59;98314.88;;;25.48;28.66
21401;BME280;18038;50.166;18.908;2022-07-24T13:45:08;98306.22;;;25.31;28.71
21401;BME280;18038;50.166;18.908;2022-07-24T13:48:17;98309.38;;;25.53;28.76
21401;BME280;18038;50.166;18.908;2022-07-24T13:51:23;98314.59;;;25.49;28.48
21401;BME280;18038;50.166;18.908;2022-07-24T13:54:30;98309.50;;;25.33;28.70
21401;BME280;18038;50.166;18.908;2022-07-24T13:57:38;98309.41;;;25.48;28.36
21401;BME280;18038;50.166;18.908;2022-07-24T14:00:44;98300.78;;;25.65;28.80
21401;BME280;18038;50.166;18.908;2022-07-24T14:03:58;98306.69;;;25.48;26.93
21401;BME280;18038;50.166;18.908;2022-07-24T14:07:24;98293.97;;;25.62;27.23
21401;BME280;18038;50.166;18.908;2022-07-24T14:10:30;98302.88;;;25.39;27.48
21401;BME280;18038;50.166;18.908;2022-07-24T14:13:36;98297.41;;;25.39;27.59
21401;BME280;18038;50.166;18.908;2022-07-24T14:16:42;98300.81;;;25.25;27.13
21401;BME280;18038;50.166;18.908;2022-07-24T14:19:51;98299.72;;;25.26;28.71
21401;BME280;18038;50.166;18.908;2022-07-24T14:22:56;98297.53;;;25.23;28.07
21401;BME280;18038;50.166;18.908;2022-07-24T14:26:02;98302.00;;;25.09;28.04
21401;BME280;18038;50.166;18.908;2022-07-24T14:29:08;98299.19;;;25.24;27.27
21401;BME280;18038;50.166;18.908;2022-07-24T14:32:14;98299.06;;;25.40;26.86
21401;BME280;18038;50.166;18.908;2022-07-24T14:35:22;98288.78;;;25.26;26.92
21401;BME280;18038;50.166;18.908;2022-07-24T14:38:29;98290.03;;;25.39;27.02
21401;BME280;18038;50.166;18.908;2022-07-24T14:41:35;98285.44;;;25.35;26.98
21401;BME280;18038;50.166;18.908;2022-07-24T14:44:41;98284.81;;;25.48;27.16
21401;BME280;18038;50.166;18.908;2022-07-24T14:47:47;98282.25;;;25.22;27.51
21401;BME280;18038;50.166;18.908;2022-07-24T14:50:55;98284.22;;;25.12;28.03
21401;BME280;18038;50.166;18.908;2022-07-24T14:54:08;98278.25;;;25.04;27.53
21401;BME280;18038;50.166;18.908;2022-07-24T14:57:14;98270.31;;;25.13;27.26
21401;BME280;18038;50.166;18.908;2022-07-24T15:00:27;98272.22;;;25.08;26.05
21401;BME280;18038;50.166;18.908;2022-07-24T15:03:33;98263.47;;;25.11;26.64
21401;BME280;18038;50.166;18.908;2022-07-24T15:06:44;98268.06;;;25.15;26.42
21401;BME280;18038;50.166;18.908;2022-07-24T15:09:50;98259.69;;;25.06;26.92
21401;BME280;18038;50.166;18.908;2022-07-24T15:12:55;98261.88;;;25.04;26.65
21401;BME280;18038;50.166;18.908;2022-07-24T15:16:01;98265.41;;;25.05;26.07
21401;BME280;18038;50.166;18.908;2022-07-24T15:19:07;98273.22;;;25.22;26.04
21401;BME280;18038;50.166;18.908;2022-07-24T15:22:15;98266.00;;;25.36;25.31
21401;BME280;18038;50.166;18.908;2022-07-24T15:25:21;98264.72;;;25.23;25.15
21401;BME280;18038;50.166;18.908;2022-07-24T15:28:28;98261.63;;;25.35;26.18
21401;BME280;18038;50.166;18.908;2022-07-24T15:31:37;98258.56;;;25.42;25.60
21401;BME280;18038;50.166;18.908;2022-07-24T15:34:45;98256.53;;;25.23;25.71
21401;BME280;18038;50.166;18.908;2022-07-24T15:37:53;98261.34;;;25.37;25.78
21401;BME280;18038;50.166;18.908;2022-07-24T15:40:58;98252.63;;;25.35;25.92
21401;BME280;18038;50.166;18.908;2022-07-24T15:44:04;98254.25;;;25.36;25.78
21401;BME280;18038;50.166;18.908;2022-07-24T15:47:11;98254.56;;;25.34;25.68
21401;BME280;18038;50.166;18.908;2022-07-24T15:50:17;98251.25;;;25.03;25.34
21401;BME280;18038;50.166;18.908;2022-07-24T15:53:25;98247.81;;;25.21;25.89
21401;BME280;18038;50.166;18.908;2022-07-24T15:56:32;98250.16;;;24.99;25.53
21401;BME280;18038;50.166;18.908;2022-07-24T15:59:37;98247.03;;;24.81;25.17
21401;BME280;18038;50.166;18.908;2022-07-24T16:02:44;98244.03;;;24.73;25.16
21401;BME280;18038;50.166;18.908;2022-07-24T16:05:51;98237.69;;;24.88;25.63
21401;BME280;18038;50.166;18.908;2022-07-24T16:08:59;98241.81;;;24.85;25.74
21401;BME280;18038;50.166;18.908;2022-07-24T16:12:06;98242.66;;;24.80;25.10
21401;BME280;18038;50.166;18.908;2022-07-24T16:15:15;98239.97;;;24.65;25.04
21401;BME280;18038;50.166;18.908;2022-07-24T16:18:21;98242.78;;;24.55;24.91
21401;BME280;18038;50.166;18.908;2022-07-24T16:21:30;98238.91;;;24.61;25.02
21401;BME280;18038;50.166;18.908;2022-07-24T16:24:43;98229.78;;;24.76;25.39
21401;BME280;18038;50.166;18.908;2022-07-24T16:27:49;98232.25;;;24.82;25.63
21401;BME280;18038;50.166;18.908;2022-07-24T16:30:54;98230.97;;;24.65;26.28
21401;BME280;18038;50.166;18.908;2022-07-24T16:34:00;98230.97;;;24.65;25.59